Nabeul, Tunisia

5:50 AM CET on May 26, 2015 (GMT +0100)
Menzel Bouzelfa TN | | Change Station
CLOSE
Current Station
Personal Weather Station
Location: Manzil Bu Zalafah, NABEUL
Elevation: 157 ft
Nearby Weather Stations

Elev 157 ft 36.68 °N, 10.58 °E | Updated 2 seconds ago

Clear
Clear
63.7 °F
Feels Like 63.7 °F
N
1.1
Wind Variable Wind from West
Gusts 2.5 mph

Today
High -- | Low -- °F
--% Chance of Precip.
Yesterday
High -- | Low -- °F
Precip. -- in
5:03 AM 7:25 PM
First Quarter, 54% visible
Pressure 29.86 in
Visibility -9999.0 miles
Clouds
Dew Point 60 °F
Humidity 88%
Rainfall 0.00 in
Snow Depth Not available.
UV 1.0 out of 12
Pollen Not available.
Air Quality Not available.
Flu Activity Not available.
METAR DTMB 260430Z AUTO 33011KT NCD 19/15 Q1011

More Conditions Fewer Conditions

Pressure 29.86 in
Visibility -9999.0 miles
Clouds
Dew Point 60 °F
Humidity 88%
Rainfall 0.00 in
Snow Depth Not available.
UV 1.0 out of 12
Pollen Not available.
Air Quality Not available.
Flu Activity Not available.
METAR DTMB 260430Z AUTO 33011KT NCD 19/15 Q1011

More Conditions Fewer Conditions

10-Day Weather Forecast

Almanac

Astronomy

May. 26, 2015 Rise Set
Actual Time
Civil Twilight
Nautical Twilight
Astronomical Twilight
Moon
Length of Visible Light
Length of Day
Tomorrow will be .
, % of the Moon is Illuminated

Today's Extremes

Country Highs Country Lows

Community

WunderPhotos

Upload Photos

1,824,280 photos uploaded!

WunderBlogs® & News

Nearby

Air Quality

  Air Quality AQ Index Pollutant
Not available.

Snow Depth

Station Depth Elevation

Earthquake Activity

City Distance Mag. Time & Date
Minimum magnitude displayed is 2.5.

Coastal Water Temperatures

Place Temperature

Stations

Nearby Weather Stations

Station Location Temp. Windchill Dew Point Humidity Wind Precip. Elev Updated Type